ADDS METAR Data INFO
IDs: Format: Raw Decoded Include TAF

Data at: 1328 UTC 19 Jul 2018

KHIE 191252Z AUTO 00000KT 10SM CLR 16/10 A3012 RMK AO2 SLP203 T01610100
KHIE 191152Z AUTO 00000KT 10SM CLR 12/09 A3011 RMK AO2 SLP198 T01170089 10117 20033 50004
KHIE 191052Z AUTO 00000KT 10SM FEW001 07/06 A3012 RMK AO2 SLP200 T00670056
KHIE 190952Z AUTO 00000KT 10SM SCT001 03/03 A3010 RMK AO2 SLP197 T00330028
KHIE 190923Z AUTO 00000KT 9SM OVC001 03/03 A3009 RMK AO2 T00330033
KHIE 190916Z AUTO 00000KT 2 1/2SM BR OVC001 04/03 A3009 RMK AO2 T00390033
KHIE 190909Z AUTO 00000KT 3SM BR OVC001 04/03 A3009 RMK AO2 T00390033
KHIE 190902Z AUTO 00000KT 2SM BR OVC001 04/03 A3008 RMK AO2 T00390033
KHIE 190852Z AUTO 00000KT 1/4SM FG OVC001 04/03 A3008 RMK AO2 SLP188 T00390033 51010
KHIE 190850Z AUTO 00000KT 1/4SM FG OVC001 03/03 A3008 RMK AO2
KHIE 190842Z AUTO 00000KT 1 1/2SM BR BKN001 04/03 A3008 RMK AO2 T00390028
KHIE 190839Z AUTO 00000KT 7SM BKN001 04/03 A3008 RMK AO2 T00390028
KHIE 190830Z AUTO 00000KT 10SM SCT001 04/03 A3007 RMK AO2 T00390028
KHIE 190752Z AUTO 00000KT 10SM CLR 04/03 A3007 RMK AO2 SLP184 T00390033
KHIE 190652Z AUTO 00000KT 10SM CLR 06/04 A3005 RMK AO2 SLP177 T00560044
KHIE 190552Z AUTO 00000KT 10SM CLR 07/05 A3005 RMK AO2 SLP177 T00670050 10189 20061 53008
KHIE 190452Z AUTO 00000KT 10SM CLR 07/06 A3004 RMK AO2 SLP173 T00720056 402330072
KHIE 190352Z AUTO 00000KT 10SM CLR 08/07 A3003 RMK AO2 SLP172 T00830072
KHIE 190252Z AUTO 00000KT 10SM CLR 10/08 A3003 RMK AO2 SLP169 T01000083 51013
KHIE 190152Z AUTO 18003KT 10SM CLR 12/09 A3002 RMK AO2 SLP167 T01170094
KHIE 190052Z AUTO 00000KT 10SM CLR 14/10 A3000 RMK AO2 SLP160 T01390100
KHIE 182352Z AUTO 33004KT 10SM CLR 19/07 A2999 RMK AO2 SLP154 T01890072 10233 20189 53012
KHIE 182252Z AUTO 32008KT 10SM CLR 21/06 A2997 RMK AO2 SLP147 T02110061
KHIE 182152Z AUTO 34008KT 10SM CLR 22/06 A2995 RMK AO2 SLP142 T02220056
KHIE 182052Z AUTO 31011KT 10SM CLR 23/06 A2995 RMK AO2 SLP141 T02280056 51006
KHIE 181952Z AUTO 34008KT 10SM CLR 23/07 A2994 RMK AO2 SLP138 T02280072
KHIE 181852Z AUTO 10SM CLR 23/07 A2994 RMK AO2 SLP136 T02280072
KHIE 181752Z AUTO 35008KT 10SM CLR 22/07 A2993 RMK AO2 SLP133 T02170067 10222 20144 57009
KHIE 181652Z AUTO 35006KT 10SM CLR 21/07 A2994 RMK AO2 SLP135 T02110072
KHIE 181552Z AUTO 27008KT 10SM CLR 20/09 A2995 RMK AO2 SLP140 T02000094
KHIE 181452Z AUTO 35005KT 10SM SCT036 SCT043 18/10 A2996 RMK AO2 SLP143 T01830100 51003
KHIE 181352Z AUTO 30008KT 10SM CLR 18/09 A2996 RMK AO2 SLP143 T01780094
KHIE 181252Z AUTO 30007KT 270V330 10SM SCT019 17/12 A2995 RMK AO2 SLP142 T01670122
KHIE 181244Z AUTO 32006KT 10SM SCT018 16/12 A2995 RMK AO2 T01560117
KHIE 181152Z AUTO VRB03KT 10SM SCT022 BKN027 14/13 A2995 RMK AO2 SLP141 70021 T01440128 10167 20128 51013
KHIE 181135Z AUTO 00000KT 10SM SCT025 14/13 A2994 RMK AO2 T01440128
KHIE 181052Z AUTO 28004KT 10SM SCT017 BKN024 13/13 A2993 RMK AO2 SLP136 T01330133
KHIE 181048Z AUTO VRB03KT 10SM SCT017 BKN024 13/13 A2993 RMK AO2
KHIE 180952Z AUTO 00000KT 8SM SCT023 13/12 A2991 RMK AO2 SLP127 T01280122
KHIE 180920Z AUTO 00000KT 3SM BR BKN025 13/13 A2989 RMK AO2 T01330128
KHIE 180906Z AUTO 00000KT 1 1/4SM BR FEW001 OVC025 13/13 A2989 RMK AO2 T01330133
KHIE 180900Z AUTO 00000KT 1/2SM FG FEW001 OVC025 13/13 A2988 RMK AO2 T01330128
KHIE 180852Z AUTO 00000KT 1SM BR SCT001 OVC025 13/13 A2988 RMK AO2 SLP116 T01280128 53013
KHIE 180846Z AUTO 00000KT 1 1/4SM BR BKN001 OVC025 13/13 A2988 RMK AO2
KHIE 180831Z AUTO 00000KT 3/4SM BR VV001 13/13 A2987 RMK AO2 VIS 1/2V4 T01280128
KHIE 180825Z AUTO 00000KT 1 1/4SM BR BKN001 13/13 A2987 RMK AO2 VIS 1/2V4 T01330128
KHIE 180822Z AUTO 00000KT 3/4SM BR VV001 13/13 A2987 RMK AO2 T01330128
KHIE 180812Z AUTO 00000KT 1SM BR VV001 13/13 A2987 RMK AO2 T01330128
KHIE 180804Z AUTO 00000KT 1 3/4SM BR FEW001 13/13 A2986 RMK AO2 VIS 3/4V5 T01330128
KHIE 180801Z AUTO 00000KT 3SM BR FEW001 13/13 A2986 RMK AO2 T01280128
KHIE 180752Z AUTO 00000KT 5SM BR CLR 14/13 A2986 RMK AO2 SLP110 T01390133
KHIE 180726Z AUTO 00000KT 3SM BR FEW001 14/14 A2986 RMK AO2 T01440139
KHIE 180717Z AUTO 00000KT 1 1/4SM BR SCT001 14/14 A2985 RMK AO2 T01440144
KHIE 180652Z AUTO 28003KT 1/4SM FG BKN001 BKN090 15/15 A2985 RMK AO2 SLP105 T01500150
KHIE 180645Z AUTO 00000KT 3/4SM BR FEW001 BKN090 15/15 A2985 RMK AO2 T01500150
KHIE 180620Z AUTO 00000KT 3SM BR SCT001 SCT050 BKN090 16/15 A2984 RMK AO2 T01560150
KHIE 180616Z AUTO 00000KT 1 1/2SM BR SCT001 SCT050 BKN090 16/16 A2984 RMK AO2 T01560156
KHIE 180610Z AUTO 00000KT 1SM BR BKN001 BKN050 BKN090 16/15 A2984 RMK AO2 T01560150
KHIE 180552Z AUTO 00000KT 1/4SM FG VV001 17/16 A2984 RMK AO2 SLP101 60000 T01670161 10206 20167 53009
KHIE 180452Z AUTO 30003KT 1/2SM FG VV001 17/17 A2983 RMK AO2 SLP098 T01720167 402560167
KHIE 180352Z AUTO 00000KT 1/4SM FG VV001 17/17 A2981 RMK AO2 SLP092 T01720172
KHIE 180332Z AUTO 12003KT 1/2SM FG BKN001 BKN095 17/17 A2981 RMK AO2 T01720172
KHIE 180325Z AUTO 00000KT 1SM BR FEW001 BKN095 18/17 A2981 RMK AO2 VIS 1/2V4 T01780172
KHIE 180322Z AUTO 00000KT 1 1/2SM BR SCT095 18/17 A2981 RMK AO2 VIS 1/2V5 T01830172
KHIE 180252Z AUTO 00000KT 10SM BKN090 19/18 A2981 RMK AO2 SLP090 60000 T01890183 50000
KHIE 180152Z AUTO 00000KT 7SM BKN070 19/19 A2981 RMK AO2 SLP091 T01940189